sensor_id;sensor_type;location;lat;lon;timestamp;P1;durP1;ratioP1;P2;durP2;ratioP2
20988;SDS011;10653;47.052;15.410;2022-11-15T00:01:02;85.00;;;46.73;;
20988;SDS011;10653;47.052;15.410;2022-11-15T00:03:31;83.20;;;46.57;;
20988;SDS011;10653;47.052;15.410;2022-11-15T00:06:01;81.77;;;47.70;;
20988;SDS011;10653;47.052;15.410;2022-11-15T00:08:28;81.70;;;49.97;;
20988;SDS011;10653;47.052;15.410;2022-11-15T00:10:55;78.13;;;45.90;;
20988;SDS011;10653;47.052;15.410;2022-11-15T00:13:22;83.03;;;47.03;;
20988;SDS011;10653;47.052;15.410;2022-11-15T00:15:48;93.37;;;51.20;;
20988;SDS011;10653;47.052;15.410;2022-11-15T00:18:14;79.97;;;44.70;;
20988;SDS011;10653;47.052;15.410;2022-11-15T00:20:40;83.03;;;47.37;;
20988;SDS011;10653;47.052;15.410;2022-11-15T00:23:07;86.90;;;47.60;;
20988;SDS011;10653;47.052;15.410;2022-11-15T00:25:34;77.90;;;45.23;;
20988;SDS011;10653;47.052;15.410;2022-11-15T00:28:00;89.40;;;47.53;;
20988;SDS011;10653;47.052;15.410;2022-11-15T00:30:27;94.50;;;47.40;;
20988;SDS011;10653;47.052;15.410;2022-11-15T00:32:53;84.23;;;46.97;;
20988;SDS011;10653;47.052;15.410;2022-11-15T00:35:20;82.87;;;45.70;;
20988;SDS011;10653;47.052;15.410;2022-11-15T00:37:46;86.07;;;47.10;;
20988;SDS011;10653;47.052;15.410;2022-11-15T00:40:12;83.47;;;49.00;;
20988;SDS011;10653;47.052;15.410;2022-11-15T00:42:39;90.37;;;47.67;;
20988;SDS011;10653;47.052;15.410;2022-11-15T00:45:05;85.67;;;47.30;;
20988;SDS011;10653;47.052;15.410;2022-11-15T00:47:31;86.57;;;44.20;;
20988;SDS011;10653;47.052;15.410;2022-11-15T00:49:57;84.97;;;45.60;;
20988;SDS011;10653;47.052;15.410;2022-11-15T00:52:23;75.43;;;44.10;;
20988;SDS011;10653;47.052;15.410;2022-11-15T00:54:49;79.13;;;43.53;;
20988;SDS011;10653;47.052;15.410;2022-11-15T00:57:16;71.07;;;43.20;;
20988;SDS011;10653;47.052;15.410;2022-11-15T00:59:42;83.57;;;45.60;;
20988;SDS011;10653;47.052;15.410;2022-11-15T01:02:08;81.27;;;46.10;;
20988;SDS011;10653;47.052;15.410;2022-11-15T01:04:34;77.93;;;44.10;;
20988;SDS011;10653;47.052;15.410;2022-11-15T01:07:00;83.73;;;46.00;;
20988;SDS011;10653;47.052;15.410;2022-11-15T01:09:26;80.13;;;46.00;;
20988;SDS011;10653;47.052;15.410;2022-11-15T01:11:52;77.37;;;43.87;;
20988;SDS011;10653;47.052;15.410;2022-11-15T01:14:18;69.63;;;41.63;;
20988;SDS011;10653;47.052;15.410;2022-11-15T01:16:44;80.10;;;42.77;;
20988;SDS011;10653;47.052;15.410;2022-11-15T01:19:10;71.70;;;43.40;;
20988;SDS011;10653;47.052;15.410;2022-11-15T01:21:36;72.30;;;43.43;;
20988;SDS011;10653;47.052;15.410;2022-11-15T01:24:02;82.27;;;42.47;;
20988;SDS011;10653;47.052;15.410;2022-11-15T01:26:28;71.23;;;42.07;;
20988;SDS011;10653;47.052;15.410;2022-11-15T01:28:54;73.47;;;43.97;;
20988;SDS011;10653;47.052;15.410;2022-11-15T01:31:20;76.97;;;45.87;;
20988;SDS011;10653;47.052;15.410;2022-11-15T01:33:47;73.67;;;42.50;;
20988;SDS011;10653;47.052;15.410;2022-11-15T01:36:14;74.40;;;43.80;;
20988;SDS011;10653;47.052;15.410;2022-11-15T01:38:40;67.07;;;43.87;;
20988;SDS011;10653;47.052;15.410;2022-11-15T01:41:11;71.63;;;44.20;;
20988;SDS011;10653;47.052;15.410;2022-11-15T01:43:38;80.33;;;46.00;;
20988;SDS011;10653;47.052;15.410;2022-11-15T01:48:36;79.43;;;44.73;;
20988;SDS011;10653;47.052;15.410;2022-11-15T01:51:04;76.20;;;42.90;;
20988;SDS011;10653;47.052;15.410;2022-11-15T01:53:32;72.60;;;43.57;;
20988;SDS011;10653;47.052;15.410;2022-11-15T01:56:01;76.53;;;41.97;;
20988;SDS011;10653;47.052;15.410;2022-11-15T01:58:27;82.20;;;44.97;;
20988;SDS011;10653;47.052;15.410;2022-11-15T02:00:53;76.80;;;42.77;;
20988;SDS011;10653;47.052;15.410;2022-11-15T02:03:20;77.33;;;44.83;;
20988;SDS011;10653;47.052;15.410;2022-11-15T02:05:47;75.03;;;45.77;;
20988;SDS011;10653;47.052;15.410;2022-11-15T02:08:14;71.40;;;42.47;;
20988;SDS011;10653;47.052;15.410;2022-11-15T02:10:45;74.50;;;43.30;;
20988;SDS011;10653;47.052;15.410;2022-11-15T02:13:12;78.87;;;43.67;;
20988;SDS011;10653;47.052;15.410;2022-11-15T02:15:40;75.13;;;42.90;;
20988;SDS011;10653;47.052;15.410;2022-11-15T02:18:14;81.73;;;45.40;;
20988;SDS011;10653;47.052;15.410;2022-11-15T02:20:49;76.87;;;45.17;;
20988;SDS011;10653;47.052;15.410;2022-11-15T02:23:28;71.63;;;43.80;;
20988;SDS011;10653;47.052;15.410;2022-11-15T02:28:36;73.03;;;42.70;;
20988;SDS011;10653;47.052;15.410;2022-11-15T02:36:28;64.17;;;39.63;;
20988;SDS011;10653;47.052;15.410;2022-11-15T02:38:53;65.37;;;42.00;;
20988;SDS011;10653;47.052;15.410;2022-11-15T02:41:23;65.53;;;38.83;;
20988;SDS011;10653;47.052;15.410;2022-11-15T02:43:57;76.53;;;44.10;;
20988;SDS011;10653;47.052;15.410;2022-11-15T02:49:11;70.07;;;39.90;;
20988;SDS011;10653;47.052;15.410;2022-11-15T02:51:37;64.40;;;42.00;;
20988;SDS011;10653;47.052;15.410;2022-11-15T02:54:04;69.37;;;40.30;;
20988;SDS011;10653;47.052;15.410;2022-11-15T02:56:30;74.90;;;43.23;;
20988;SDS011;10653;47.052;15.410;2022-11-15T03:05:08;67.20;;;42.40;;
20988;SDS011;10653;47.052;15.410;2022-11-15T03:07:11;68.23;;;41.80;;
20988;SDS011;10653;47.052;15.410;2022-11-15T03:09:41;68.63;;;41.90;;
20988;SDS011;10653;47.052;15.410;2022-11-15T03:12:16;73.17;;;43.80;;
20988;SDS011;10653;47.052;15.410;2022-11-15T03:14:48;59.80;;;39.03;;
20988;SDS011;10653;47.052;15.410;2022-11-15T03:19:50;70.80;;;42.57;;
20988;SDS011;10653;47.052;15.410;2022-11-15T03:22:18;68.73;;;42.00;;
20988;SDS011;10653;47.052;15.410;2022-11-15T03:24:46;61.40;;;38.73;;
20988;SDS011;10653;47.052;15.410;2022-11-15T03:27:15;61.63;;;40.07;;
20988;SDS011;10653;47.052;15.410;2022-11-15T03:29:44;64.63;;;39.77;;
20988;SDS011;10653;47.052;15.410;2022-11-15T03:32:16;67.40;;;41.50;;
20988;SDS011;10653;47.052;15.410;2022-11-15T03:34:52;67.77;;;42.43;;
20988;SDS011;10653;47.052;15.410;2022-11-15T03:37:20;71.13;;;41.80;;
20988;SDS011;10653;47.052;15.410;2022-11-15T03:39:47;71.33;;;42.50;;
20988;SDS011;10653;47.052;15.410;2022-11-15T03:49:50;72.10;;;41.60;;
20988;SDS011;10653;47.052;15.410;2022-11-15T03:52:18;73.00;;;44.67;;
20988;SDS011;10653;47.052;15.410;2022-11-15T03:54:52;64.87;;;41.03;;
20988;SDS011;10653;47.052;15.410;2022-11-15T03:57:18;65.43;;;41.80;;
20988;SDS011;10653;47.052;15.410;2022-11-15T03:59:44;65.70;;;41.50;;
20988;SDS011;10653;47.052;15.410;2022-11-15T04:02:10;73.23;;;42.30;;
20988;SDS011;10653;47.052;15.410;2022-11-15T04:04:36;70.57;;;42.90;;
20988;SDS011;10653;47.052;15.410;2022-11-15T04:07:02;71.80;;;41.90;;
20988;SDS011;10653;47.052;15.410;2022-11-15T04:09:28;67.27;;;39.40;;
20988;SDS011;10653;47.052;15.410;2022-11-15T04:11:54;71.10;;;41.80;;
20988;SDS011;10653;47.052;15.410;2022-11-15T04:14:20;60.57;;;39.10;;
20988;SDS011;10653;47.052;15.410;2022-11-15T04:16:46;54.13;;;37.57;;
20988;SDS011;10653;47.052;15.410;2022-11-15T04:19:12;53.33;;;36.07;;
20988;SDS011;10653;47.052;15.410;2022-11-15T04:21:57;54.73;;;35.50;;
20988;SDS011;10653;47.052;15.410;2022-11-15T04:24:41;51.60;;;35.90;;
20988;SDS011;10653;47.052;15.410;2022-11-15T04:27:07;61.97;;;39.67;;
20988;SDS011;10653;47.052;15.410;2022-11-15T04:29:33;62.63;;;39.60;;
20988;SDS011;10653;47.052;15.410;2022-11-15T04:32:00;63.63;;;40.20;;
20988;SDS011;10653;47.052;15.410;2022-11-15T04:34:26;61.40;;;40.60;;
20988;SDS011;10653;47.052;15.410;2022-11-15T04:36:52;63.37;;;39.77;;
20988;SDS011;10653;47.052;15.410;2022-11-15T04:39:36;60.50;;;38.70;;
20988;SDS011;10653;47.052;15.410;2022-11-15T04:42:02;59.30;;;37.80;;
20988;SDS011;10653;47.052;15.410;2022-11-15T04:44:28;67.27;;;37.23;;
20988;SDS011;10653;47.052;15.410;2022-11-15T04:46:54;61.73;;;38.60;;
20988;SDS011;10653;47.052;15.410;2022-11-15T04:49:21;59.60;;;40.43;;
20988;SDS011;10653;47.052;15.410;2022-11-15T04:51:47;67.43;;;38.53;;
20988;SDS011;10653;47.052;15.410;2022-11-15T04:54:13;67.70;;;39.27;;
20988;SDS011;10653;47.052;15.410;2022-11-15T04:56:39;63.23;;;38.80;;
20988;SDS011;10653;47.052;15.410;2022-11-15T04:59:05;70.70;;;38.03;;
20988;SDS011;10653;47.052;15.410;2022-11-15T05:01:31;58.43;;;39.13;;
20988;SDS011;10653;47.052;15.410;2022-11-15T05:03:57;67.07;;;40.67;;
20988;SDS011;10653;47.052;15.410;2022-11-15T05:06:41;62.60;;;39.90;;
20988;SDS011;10653;47.052;15.410;2022-11-15T05:09:07;60.90;;;37.57;;
20988;SDS011;10653;47.052;15.410;2022-11-15T05:11:33;66.00;;;39.07;;
20988;SDS011;10653;47.052;15.410;2022-11-15T05:13:59;59.83;;;38.37;;
20988;SDS011;10653;47.052;15.410;2022-11-15T05:16:25;64.27;;;39.80;;
20988;SDS011;10653;47.052;15.410;2022-11-15T05:18:52;67.77;;;41.33;;
20988;SDS011;10653;47.052;15.410;2022-11-15T05:21:18;66.23;;;38.07;;
20988;SDS011;10653;47.052;15.410;2022-11-15T05:23:44;62.13;;;37.50;;
20988;SDS011;10653;47.052;15.410;2022-11-15T05:26:11;66.23;;;38.60;;
20988;SDS011;10653;47.052;15.410;2022-11-15T05:28:37;69.93;;;42.33;;
20988;SDS011;10653;47.052;15.410;2022-11-15T05:31:04;76.03;;;41.77;;
20988;SDS011;10653;47.052;15.410;2022-11-15T05:33:31;70.53;;;40.40;;
20988;SDS011;10653;47.052;15.410;2022-11-15T05:36:02;71.23;;;40.20;;
20988;SDS011;10653;47.052;15.410;2022-11-15T05:38:29;68.20;;;42.80;;
20988;SDS011;10653;47.052;15.410;2022-11-15T05:40:56;79.80;;;44.23;;
20988;SDS011;10653;47.052;15.410;2022-11-15T05:43:22;70.13;;;42.13;;
20988;SDS011;10653;47.052;15.410;2022-11-15T05:45:48;79.90;;;42.90;;
20988;SDS011;10653;47.052;15.410;2022-11-15T05:48:14;85.53;;;45.77;;
20988;SDS011;10653;47.052;15.410;2022-11-15T05:50:41;77.77;;;42.37;;
20988;SDS011;10653;47.052;15.410;2022-11-15T05:53:09;87.97;;;44.70;;
20988;SDS011;10653;47.052;15.410;2022-11-15T05:55:37;87.63;;;47.60;;
20988;SDS011;10653;47.052;15.410;2022-11-15T05:58:03;84.83;;;43.33;;
20988;SDS011;10653;47.052;15.410;2022-11-15T06:00:30;88.50;;;46.60;;
20988;SDS011;10653;47.052;15.410;2022-11-15T06:02:56;92.30;;;47.87;;
20988;SDS011;10653;47.052;15.410;2022-11-15T06:05:22;95.57;;;44.80;;
20988;SDS011;10653;47.052;15.410;2022-11-15T06:07:48;100.13;;;46.57;;
20988;SDS011;10653;47.052;15.410;2022-11-15T06:10:14;90.83;;;47.73;;
20988;SDS011;10653;47.052;15.410;2022-11-15T06:12:40;98.33;;;46.80;;
20988;SDS011;10653;47.052;15.410;2022-11-15T06:15:06;97.80;;;47.40;;
20988;SDS011;10653;47.052;15.410;2022-11-15T06:17:32;102.10;;;49.53;;
20988;SDS011;10653;47.052;15.410;2022-11-15T06:19:58;112.23;;;47.90;;
20988;SDS011;10653;47.052;15.410;2022-11-15T06:22:24;126.20;;;51.40;;
20988;SDS011;10653;47.052;15.410;2022-11-15T06:24:50;115.13;;;49.83;;
20988;SDS011;10653;47.052;15.410;2022-11-15T06:27:16;103.37;;;49.40;;
20988;SDS011;10653;47.052;15.410;2022-11-15T06:29:42;98.03;;;48.93;;
20988;SDS011;10653;47.052;15.410;2022-11-15T06:32:08;124.07;;;51.50;;
20988;SDS011;10653;47.052;15.410;2022-11-15T06:34:34;101.43;;;48.50;;
20988;SDS011;10653;47.052;15.410;2022-11-15T06:37:00;110.50;;;48.00;;
20988;SDS011;10653;47.052;15.410;2022-11-15T06:39:26;101.27;;;49.47;;
20988;SDS011;10653;47.052;15.410;2022-11-15T06:41:52;97.83;;;48.13;;
20988;SDS011;10653;47.052;15.410;2022-11-15T06:44:18;91.20;;;46.37;;
20988;SDS011;10653;47.052;15.410;2022-11-15T06:46:44;102.90;;;45.83;;
20988;SDS011;10653;47.052;15.410;2022-11-15T06:49:10;102.67;;;49.13;;
20988;SDS011;10653;47.052;15.410;2022-11-15T06:51:36;93.00;;;44.90;;
20988;SDS011;10653;47.052;15.410;2022-11-15T06:54:03;98.50;;;46.10;;
20988;SDS011;10653;47.052;15.410;2022-11-15T06:56:29;78.00;;;44.10;;
20988;SDS011;10653;47.052;15.410;2022-11-15T06:58:55;92.40;;;44.10;;
20988;SDS011;10653;47.052;15.410;2022-11-15T07:01:21;85.23;;;44.30;;
20988;SDS011;10653;47.052;15.410;2022-11-15T07:03:47;83.60;;;42.00;;
20988;SDS011;10653;47.052;15.410;2022-11-15T07:06:13;93.10;;;45.17;;
20988;SDS011;10653;47.052;15.410;2022-11-15T07:08:39;75.83;;;41.00;;
20988;SDS011;10653;47.052;15.410;2022-11-15T07:11:07;80.60;;;44.37;;
20988;SDS011;10653;47.052;15.410;2022-11-15T07:13:34;79.03;;;40.83;;
20988;SDS011;10653;47.052;15.410;2022-11-15T07:16:01;73.57;;;41.87;;
20988;SDS011;10653;47.052;15.410;2022-11-15T07:18:28;66.00;;;38.30;;
20988;SDS011;10653;47.052;15.410;2022-11-15T07:20:54;76.63;;;40.10;;
20988;SDS011;10653;47.052;15.410;2022-11-15T07:23:20;72.47;;;39.00;;
20988;SDS011;10653;47.052;15.410;2022-11-15T07:25:46;81.40;;;42.23;;
20988;SDS011;10653;47.052;15.410;2022-11-15T07:28:12;78.07;;;40.57;;
20988;SDS011;10653;47.052;15.410;2022-11-15T07:30:38;81.83;;;43.33;;
20988;SDS011;10653;47.052;15.410;2022-11-15T07:33:04;74.73;;;40.37;;
20988;SDS011;10653;47.052;15.410;2022-11-15T07:35:30;79.60;;;41.23;;
20988;SDS011;10653;47.052;15.410;2022-11-15T07:38:00;76.47;;;41.33;;
20988;SDS011;10653;47.052;15.410;2022-11-15T07:40:27;78.90;;;39.60;;
20988;SDS011;10653;47.052;15.410;2022-11-15T07:43:04;83.43;;;39.97;;
20988;SDS011;10653;47.052;15.410;2022-11-15T07:45:31;73.27;;;40.57;;
20988;SDS011;10653;47.052;15.410;2022-11-15T07:47:59;84.17;;;40.60;;
20988;SDS011;10653;47.052;15.410;2022-11-15T07:50:26;84.27;;;42.13;;
20988;SDS011;10653;47.052;15.410;2022-11-15T07:52:58;67.50;;;40.53;;
20988;SDS011;10653;47.052;15.410;2022-11-15T07:55:24;82.90;;;42.10;;
20988;SDS011;10653;47.052;15.410;2022-11-15T07:57:50;80.43;;;44.37;;
20988;SDS011;10653;47.052;15.410;2022-11-15T08:00:16;77.97;;;41.10;;
20988;SDS011;10653;47.052;15.410;2022-11-15T08:02:42;81.47;;;42.00;;
20988;SDS011;10653;47.052;15.410;2022-11-15T08:05:08;78.00;;;40.50;;
20988;SDS011;10653;47.052;15.410;2022-11-15T08:07:34;70.07;;;40.73;;
20988;SDS011;10653;47.052;15.410;2022-11-15T08:10:03;78.87;;;43.27;;
20988;SDS011;10653;47.052;15.410;2022-11-15T08:12:31;65.50;;;39.10;;
20988;SDS011;10653;47.052;15.410;2022-11-15T08:14:57;70.87;;;40.63;;
20988;SDS011;10653;47.052;15.410;2022-11-15T08:17:23;66.53;;;37.17;;
20988;SDS011;10653;47.052;15.410;2022-11-15T08:19:50;61.90;;;37.13;;
20988;SDS011;10653;47.052;15.410;2022-11-15T08:22:16;62.30;;;37.27;;
20988;SDS011;10653;47.052;15.410;2022-11-15T08:24:43;63.57;;;36.37;;
20988;SDS011;10653;47.052;15.410;2022-11-15T08:27:09;67.30;;;36.57;;
20988;SDS011;10653;47.052;15.410;2022-11-15T08:29:42;62.97;;;37.13;;
20988;SDS011;10653;47.052;15.410;2022-11-15T08:32:09;58.10;;;35.47;;
20988;SDS011;10653;47.052;15.410;2022-11-15T08:34:35;70.27;;;39.93;;
20988;SDS011;10653;47.052;15.410;2022-11-15T08:37:02;66.73;;;37.87;;
20988;SDS011;10653;47.052;15.410;2022-11-15T08:39:28;64.37;;;36.93;;
20988;SDS011;10653;47.052;15.410;2022-11-15T08:41:54;63.00;;;35.40;;
20988;SDS011;10653;47.052;15.410;2022-11-15T08:44:20;58.53;;;34.23;;
20988;SDS011;10653;47.052;15.410;2022-11-15T08:46:46;57.40;;;34.53;;
20988;SDS011;10653;47.052;15.410;2022-11-15T08:49:12;59.87;;;35.93;;
20988;SDS011;10653;47.052;15.410;2022-11-15T08:51:38;63.70;;;38.50;;
20988;SDS011;10653;47.052;15.410;2022-11-15T08:54:04;64.43;;;37.77;;
20988;SDS011;10653;47.052;15.410;2022-11-15T08:56:30;67.67;;;37.30;;
20988;SDS011;10653;47.052;15.410;2022-11-15T08:58:56;65.47;;;38.13;;
20988;SDS011;10653;47.052;15.410;2022-11-15T09:01:22;65.83;;;38.93;;
20988;SDS011;10653;47.052;15.410;2022-11-15T09:03:48;65.30;;;37.07;;
20988;SDS011;10653;47.052;15.410;2022-11-15T09:06:14;66.20;;;36.67;;
20988;SDS011;10653;47.052;15.410;2022-11-15T09:08:40;66.57;;;37.20;;
20988;SDS011;10653;47.052;15.410;2022-11-15T09:11:07;73.20;;;37.50;;
20988;SDS011;10653;47.052;15.410;2022-11-15T09:13:33;62.50;;;37.30;;
20988;SDS011;10653;47.052;15.410;2022-11-15T09:16:01;61.63;;;35.97;;
20988;SDS011;10653;47.052;15.410;2022-11-15T09:18:27;59.73;;;35.53;;
20988;SDS011;10653;47.052;15.410;2022-11-15T09:20:57;60.50;;;34.97;;
20988;SDS011;10653;47.052;15.410;2022-11-15T09:23:24;64.70;;;35.90;;
20988;SDS011;10653;47.052;15.410;2022-11-15T09:25:50;59.37;;;36.23;;
20988;SDS011;10653;47.052;15.410;2022-11-15T09:28:16;61.63;;;35.40;;
20988;SDS011;10653;47.052;15.410;2022-11-15T09:30:42;62.37;;;36.83;;
20988;SDS011;10653;47.052;15.410;2022-11-15T09:33:09;68.20;;;37.00;;
20988;SDS011;10653;47.052;15.410;2022-11-15T09:35:36;64.13;;;35.33;;
20988;SDS011;10653;47.052;15.410;2022-11-15T09:38:02;59.93;;;35.40;;
20988;SDS011;10653;47.052;15.410;2022-11-15T09:40:29;63.37;;;37.90;;
20988;SDS011;10653;47.052;15.410;2022-11-15T09:45:37;59.13;;;37.37;;
20988;SDS011;10653;47.052;15.410;2022-11-15T09:50:50;63.93;;;36.80;;
20988;SDS011;10653;47.052;15.410;2022-11-15T09:56:14;70.03;;;33.60;;
20988;SDS011;10653;47.052;15.410;2022-11-15T10:01:16;56.00;;;33.17;;
20988;SDS011;10653;47.052;15.410;2022-11-15T10:03:45;59.30;;;33.20;;
20988;SDS011;10653;47.052;15.410;2022-11-15T10:06:18;52.53;;;31.70;;
20988;SDS011;10653;47.052;15.410;2022-11-15T10:11:23;56.17;;;32.97;;
20988;SDS011;10653;47.052;15.410;2022-11-15T10:13:51;51.20;;;31.63;;
20988;SDS011;10653;47.052;15.410;2022-11-15T10:21:32;52.30;;;31.30;;
20988;SDS011;10653;47.052;15.410;2022-11-15T10:24:01;51.10;;;32.70;;
20988;SDS011;10653;47.052;15.410;2022-11-15T10:26:27;53.67;;;31.83;;
20988;SDS011;10653;47.052;15.410;2022-11-15T10:28:53;49.30;;;31.70;;
20988;SDS011;10653;47.052;15.410;2022-11-15T10:33:48;64.80;;;40.20;;
20988;SDS011;10653;47.052;15.410;2022-11-15T10:41:17;49.83;;;31.33;;
20988;SDS011;10653;47.052;15.410;2022-11-15T10:43:44;46.47;;;30.30;;
20988;SDS011;10653;47.052;15.410;2022-11-15T10:46:20;44.50;;;29.53;;
20988;SDS011;10653;47.052;15.410;2022-11-15T10:48:47;48.87;;;31.47;;
20988;SDS011;10653;47.052;15.410;2022-11-15T10:51:21;45.57;;;30.07;;
20988;SDS011;10653;47.052;15.410;2022-11-15T10:53:50;48.40;;;27.50;;
20988;SDS011;10653;47.052;15.410;2022-11-15T10:56:17;46.67;;;29.10;;
20988;SDS011;10653;47.052;15.410;2022-11-15T10:58:56;42.37;;;27.00;;
20988;SDS011;10653;47.052;15.410;2022-11-15T11:01:23;43.47;;;29.20;;
20988;SDS011;10653;47.052;15.410;2022-11-15T11:04:00;42.93;;;27.33;;
20988;SDS011;10653;47.052;15.410;2022-11-15T11:06:26;42.43;;;25.57;;
20988;SDS011;10653;47.052;15.410;2022-11-15T11:08:59;37.73;;;27.80;;
20988;SDS011;10653;47.052;15.410;2022-11-15T11:12:00;39.77;;;27.13;;
20988;SDS011;10653;47.052;15.410;2022-11-15T11:14:20;39.20;;;27.40;;
20988;SDS011;10653;47.052;15.410;2022-11-15T11:37:20;44.10;;;29.50;;
20988;SDS011;10653;47.052;15.410;2022-11-15T11:42:36;45.20;;;31.60;;
20988;SDS011;10653;47.052;15.410;2022-11-15T11:47:39;40.30;;;27.30;;
20988;SDS011;10653;47.052;15.410;2022-11-15T11:50:12;40.27;;;27.10;;
20988;SDS011;10653;47.052;15.410;2022-11-15T11:57:41;42.70;;;26.87;;
20988;SDS011;10653;47.052;15.410;2022-11-15T12:02:39;38.50;;;25.70;;
20988;SDS011;10653;47.052;15.410;2022-11-15T12:07:52;43.10;;;28.40;;
20988;SDS011;10653;47.052;15.410;2022-11-15T12:10:22;41.33;;;26.43;;
20988;SDS011;10653;47.052;15.410;2022-11-15T12:12:51;36.77;;;25.80;;
20988;SDS011;10653;47.052;15.410;2022-11-15T12:15:23;43.50;;;27.67;;
20988;SDS011;10653;47.052;15.410;2022-11-15T12:17:50;44.53;;;29.00;;
20988;SDS011;10653;47.052;15.410;2022-11-15T12:22:44;51.70;;;30.27;;
20988;SDS011;10653;47.052;15.410;2022-11-15T12:27:49;47.80;;;29.73;;
20988;SDS011;10653;47.052;15.410;2022-11-15T12:30:20;47.97;;;29.17;;
20988;SDS011;10653;47.052;15.410;2022-11-15T12:33:00;48.30;;;29.27;;
20988;SDS011;10653;47.052;15.410;2022-11-15T12:35:37;46.30;;;27.90;;
20988;SDS011;10653;47.052;15.410;2022-11-15T12:38:04;44.90;;;29.13;;
20988;SDS011;10653;47.052;15.410;2022-11-15T12:40:32;53.53;;;33.00;;
20988;SDS011;10653;47.052;15.410;2022-11-15T12:47:53;50.73;;;29.20;;
20988;SDS011;10653;47.052;15.410;2022-11-15T13:01:54;40.00;;;25.20;;
20988;SDS011;10653;47.052;15.410;2022-11-15T13:06:43;37.50;;;25.00;;
20988;SDS011;10653;47.052;15.410;2022-11-15T13:11:54;43.80;;;25.67;;
20988;SDS011;10653;47.052;15.410;2022-11-15T13:14:53;42.00;;;25.60;;
20988;SDS011;10653;47.052;15.410;2022-11-15T13:19:57;36.37;;;24.43;;
20988;SDS011;10653;47.052;15.410;2022-11-15T13:22:24;37.80;;;24.83;;
20988;SDS011;10653;47.052;15.410;2022-11-15T13:25:15;38.80;;;27.33;;
20988;SDS011;10653;47.052;15.410;2022-11-15T13:27:44;37.63;;;25.50;;
20988;SDS011;10653;47.052;15.410;2022-11-15T13:30:15;36.63;;;24.60;;
20988;SDS011;10653;47.052;15.410;2022-11-15T13:32:44;39.97;;;24.43;;
20988;SDS011;10653;47.052;15.410;2022-11-15T13:35:17;39.13;;;26.00;;
20988;SDS011;10653;47.052;15.410;2022-11-15T13:37:44;35.37;;;25.07;;
20988;SDS011;10653;47.052;15.410;2022-11-15T13:40:16;33.40;;;24.97;;
20988;SDS011;10653;47.052;15.410;2022-11-15T13:42:44;37.77;;;25.30;;
20988;SDS011;10653;47.052;15.410;2022-11-15T13:45:12;34.27;;;24.53;;
20988;SDS011;10653;47.052;15.410;2022-11-15T13:47:39;37.53;;;24.83;;
20988;SDS011;10653;47.052;15.410;2022-11-15T13:50:05;33.37;;;23.27;;
20988;SDS011;10653;47.052;15.410;2022-11-15T13:52:33;30.77;;;22.47;;
20988;SDS011;10653;47.052;15.410;2022-11-15T13:57:42;34.47;;;23.83;;
20988;SDS011;10653;47.052;15.410;2022-11-15T14:00:26;33.83;;;24.47;;
20988;SDS011;10653;47.052;15.410;2022-11-15T14:02:53;32.53;;;23.83;;
20988;SDS011;10653;47.052;15.410;2022-11-15T14:05:28;36.73;;;24.43;;
20988;SDS011;10653;47.052;15.410;2022-11-15T14:07:58;34.00;;;22.07;;
20988;SDS011;10653;47.052;15.410;2022-11-15T14:12:53;30.93;;;20.20;;
20988;SDS011;10653;47.052;15.410;2022-11-15T14:17:49;33.97;;;23.07;;
20988;SDS011;10653;47.052;15.410;2022-11-15T14:22:50;30.67;;;22.13;;
20988;SDS011;10653;47.052;15.410;2022-11-15T14:25:18;29.60;;;22.17;;
20988;SDS011;10653;47.052;15.410;2022-11-15T14:28:07;29.57;;;21.70;;
20988;SDS011;10653;47.052;15.410;2022-11-15T14:30:30;30.40;;;20.77;;
20988;SDS011;10653;47.052;15.410;2022-11-15T14:32:56;29.17;;;21.33;;
20988;SDS011;10653;47.052;15.410;2022-11-15T14:35:22;31.07;;;20.33;;
20988;SDS011;10653;47.052;15.410;2022-11-15T14:37:49;31.23;;;21.47;;
20988;SDS011;10653;47.052;15.410;2022-11-15T14:40:16;28.53;;;21.17;;
20988;SDS011;10653;47.052;15.410;2022-11-15T14:42:47;31.30;;;20.70;;
20988;SDS011;10653;47.052;15.410;2022-11-15T14:45:14;34.07;;;21.70;;
20988;SDS011;10653;47.052;15.410;2022-11-15T14:47:41;27.87;;;21.20;;
20988;SDS011;10653;47.052;15.410;2022-11-15T14:50:11;28.03;;;19.27;;
20988;SDS011;10653;47.052;15.410;2022-11-15T14:52:37;28.50;;;18.87;;
20988;SDS011;10653;47.052;15.410;2022-11-15T14:55:04;28.67;;;20.30;;
20988;SDS011;10653;47.052;15.410;2022-11-15T14:57:35;29.40;;;19.20;;
20988;SDS011;10653;47.052;15.410;2022-11-15T15:00:02;27.47;;;21.37;;
20988;SDS011;10653;47.052;15.410;2022-11-15T15:02:28;27.43;;;20.10;;
20988;SDS011;10653;47.052;15.410;2022-11-15T15:04:54;33.07;;;21.40;;
20988;SDS011;10653;47.052;15.410;2022-11-15T15:07:21;30.33;;;20.33;;
20988;SDS011;10653;47.052;15.410;2022-11-15T15:09:47;29.47;;;20.67;;
20988;SDS011;10653;47.052;15.410;2022-11-15T15:12:14;25.30;;;19.23;;
20988;SDS011;10653;47.052;15.410;2022-11-15T15:14:41;27.57;;;19.30;;
20988;SDS011;10653;47.052;15.410;2022-11-15T15:17:07;25.67;;;19.67;;
20988;SDS011;10653;47.052;15.410;2022-11-15T15:19:33;26.40;;;20.37;;
20988;SDS011;10653;47.052;15.410;2022-11-15T15:21:59;29.17;;;20.07;;
20988;SDS011;10653;47.052;15.410;2022-11-15T15:24:25;25.13;;;18.67;;
20988;SDS011;10653;47.052;15.410;2022-11-15T15:26:51;24.40;;;19.80;;
20988;SDS011;10653;47.052;15.410;2022-11-15T15:29:17;26.13;;;19.37;;
20988;SDS011;10653;47.052;15.410;2022-11-15T15:31:43;27.97;;;20.27;;
20988;SDS011;10653;47.052;15.410;2022-11-15T15:34:10;24.60;;;19.03;;
20988;SDS011;10653;47.052;15.410;2022-11-15T15:36:36;26.80;;;20.53;;
20988;SDS011;10653;47.052;15.410;2022-11-15T15:39:02;32.17;;;21.97;;
20988;SDS011;10653;47.052;15.410;2022-11-15T15:41:28;27.17;;;19.60;;
20988;SDS011;10653;47.052;15.410;2022-11-15T15:43:54;35.03;;;22.90;;
20988;SDS011;10653;47.052;15.410;2022-11-15T15:46:20;29.80;;;21.20;;
20988;SDS011;10653;47.052;15.410;2022-11-15T15:48:46;27.40;;;19.97;;
20988;SDS011;10653;47.052;15.410;2022-11-15T15:51:12;28.20;;;20.37;;
20988;SDS011;10653;47.052;15.410;2022-11-15T15:53:38;29.13;;;20.00;;
20988;SDS011;10653;47.052;15.410;2022-11-15T15:56:04;29.90;;;21.97;;
20988;SDS011;10653;47.052;15.410;2022-11-15T15:58:33;25.80;;;19.97;;
20988;SDS011;10653;47.052;15.410;2022-11-15T16:00:59;27.67;;;19.20;;
20988;SDS011;10653;47.052;15.410;2022-11-15T16:03:25;28.93;;;20.83;;
20988;SDS011;10653;47.052;15.410;2022-11-15T16:05:52;29.43;;;20.40;;
20988;SDS011;10653;47.052;15.410;2022-11-15T16:08:19;28.40;;;21.00;;
20988;SDS011;10653;47.052;15.410;2022-11-15T16:10:46;30.17;;;20.20;;
20988;SDS011;10653;47.052;15.410;2022-11-15T16:13:13;26.90;;;20.27;;
20988;SDS011;10653;47.052;15.410;2022-11-15T16:15:39;31.70;;;21.50;;
20988;SDS011;10653;47.052;15.410;2022-11-15T16:18:05;28.07;;;21.30;;
20988;SDS011;10653;47.052;15.410;2022-11-15T16:20:36;29.93;;;22.73;;
20988;SDS011;10653;47.052;15.410;2022-11-15T16:23:03;30.13;;;22.07;;